Time;durP1;ratioP1;P1;durP2;ratioP2;P2;SDS_P1;SDS_P2;PMS_P1;PMS_P2;Temp;Humidity;BMP_temperature;BMP_pressure;BME280_temperature;BME280_humidity;BME280_pressure;Samples;Min_cycle;Max_cycle;Signal;HPM_P1;HPM_P2
2020/12/30 00:01:02;;;;;;;7.20;5.57;;;5.10;99.90;;;4.40;91.10;99875.56;4119659;28;20058;-69
2020/12/30 00:03:03;;;;;;;9.27;5.82;;;5.10;99.90;;;4.39;90.84;99873.91;4086808;29;20028;-69
2020/12/30 00:05:09;;;;;;;7.82;4.43;;;5.10;99.90;;;4.55;90.11;99869.91;4118796;28;20031;-69
2020/12/30 00:07:10;;;;;;;9.45;5.13;;;5.10;99.90;;;4.57;90.86;99891.50;4086890;29;20520;-70
2020/12/30 00:09:10;;;;;;;5.97;3.08;;;5.10;99.90;;;4.52;89.78;99885.84;4118338;28;20031;-70
2020/12/30 00:11:11;;;;;;;7.95;5.03;;;5.00;99.90;;;4.63;89.07;99889.13;4102211;29;20050;-69
2020/12/30 00:13:12;;;;;;;4.50;3.75;;;5.10;99.90;;;4.56;90.02;99895.91;4120024;28;20058;-70
2020/12/30 00:15:15;;;;;;;4.65;3.47;;;5.20;99.90;;;4.47;90.20;99892.31;4102846;29;20031;-69
2020/12/30 00:17:16;;;;;;;5.65;3.80;;;5.10;99.90;;;4.60;90.03;99899.84;4119628;28;20491;-69
2020/12/30 00:19:17;;;;;;;4.85;3.17;;;5.30;99.90;;;4.45;90.10;99890.78;4118332;28;20100;-69
2020/12/30 00:21:17;;;;;;;4.55;3.10;;;5.20;99.90;;;4.65;89.63;99902.06;4102364;29;20046;-69
2020/12/30 00:23:18;;;;;;;6.15;4.20;;;5.20;99.90;;;4.41;90.38;99874.59;4119647;28;20046;-69
2020/12/30 00:25:19;;;;;;;7.82;3.80;;;5.30;99.90;;;4.56;90.22;99887.22;4101929;29;20036;-69
2020/12/30 00:27:20;;;;;;;5.38;4.35;;;5.20;99.90;;;4.61;89.63;99900.69;4119436;28;20498;-70
2020/12/30 00:29:21;;;;;;;7.10;3.83;;;5.20;99.90;;;4.57;90.04;99905.34;4102410;28;20435;-69
2020/12/30 00:31:22;;;;;;;9.13;4.00;;;5.20;99.90;;;4.42;90.55;99907.56;4102339;28;20027;-69
2020/12/30 00:33:22;;;;;;;3.95;2.65;;;5.30;99.90;;;4.55;89.34;99911.69;4119387;28;20034;-69
2020/12/30 00:35:23;;;;;;;3.65;3.10;;;5.30;99.90;;;4.65;89.26;99912.53;4119686;28;20479;-69
2020/12/30 00:37:24;;;;;;;3.95;2.53;;;5.30;99.90;;;4.65;88.97;99902.06;4102467;29;20027;-70
2020/12/30 00:39:25;;;;;;;6.13;3.30;;;5.30;99.90;;;4.61;90.16;99911.13;4101894;29;20031;-69
2020/12/30 00:41:26;;;;;;;4.28;2.88;;;5.40;99.90;;;4.70;88.76;99921.59;4111027;28;20403;-70
2020/12/30 00:43:27;;;;;;;8.57;3.45;;;5.20;99.90;;;4.68;89.29;99912.25;4119209;28;20038;-69
2020/12/30 00:45:28;;;;;;;7.90;4.10;;;5.20;99.90;;;4.75;88.33;99921.19;4102323;29;20031;-69
2020/12/30 00:47:29;;;;;;;8.38;5.53;;;5.20;99.90;;;4.71;88.33;99912.78;4102560;28;20171;-69
2020/12/30 00:49:30;;;;;;;4.57;2.80;;;5.10;99.90;;;4.62;88.55;99911.00;4120951;28;20069;-69
2020/12/30 00:51:31;;;;;;;6.82;3.33;;;5.20;99.90;;;4.76;87.86;99922.81;4119338;28;20027;-69
2020/12/30 00:53:32;;;;;;;5.82;4.10;;;5.10;99.90;;;4.62;88.67;99931.91;4119350;28;20034;-69
2020/12/30 00:55:33;;;;;;;4.05;3.10;;;5.20;99.90;;;4.63;88.19;99936.16;4118932;28;20034;-69
2020/12/30 00:57:33;;;;;;;9.43;3.55;;;5.10;99.90;;;4.59;88.40;99944.41;4101960;29;20031;-69
2020/12/30 00:59:34;;;;;;;4.95;2.65;;;5.10;99.90;;;4.51;88.49;99931.22;4119153;28;20042;-69
2020/12/30 01:01:35;;;;;;;7.18;2.85;;;5.10;99.90;;;4.51;89.16;99939.06;4119425;28;20038;-70
2020/12/30 01:03:38;;;;;;;6.65;4.38;;;5.10;99.90;;;4.54;88.70;99936.97;4119139;28;20019;-69
2020/12/30 01:05:39;;;;;;;8.07;4.45;;;5.10;99.90;;;4.41;88.94;99942.50;4102175;28;20089;-69
2020/12/30 01:07:40;;;;;;;5.70;3.22;;;5.10;99.90;;;4.30;89.48;99947.00;4119291;28;20109;-69
2020/12/30 01:09:41;;;;;;;9.55;4.60;;;5.00;99.90;;;4.44;89.41;99955.28;4118984;28;20027;-69
2020/12/30 01:11:42;;;;;;;9.63;4.82;;;5.00;99.90;;;4.33;89.35;99952.75;4119167;28;20035;-69
2020/12/30 01:13:43;;;;;;;5.68;3.08;;;5.00;99.90;;;4.31;89.38;99953.88;4101794;29;20529;-69
2020/12/30 01:15:44;;;;;;;6.68;2.50;;;5.00;99.90;;;4.14;90.62;99954.53;4102143;29;20031;-69
2020/12/30 01:17:45;;;;;;;4.65;3.05;;;5.00;99.90;;;4.36;89.90;99981.22;4119195;28;20042;-69
2020/12/30 01:19:45;;;;;;;5.60;3.05;;;4.90;99.90;;;4.22;90.53;99972.94;4101830;29;20064;-69
2020/12/30 01:21:47;;;;;;;4.43;2.40;;;4.80;99.90;;;4.23;90.84;99990.25;4102781;28;20028;-69
2020/12/30 01:23:48;;;;;;;8.95;3.33;;;4.80;99.90;;;4.00;91.29;99981.84;4122341;28;20097;-69
2020/12/30 01:25:55;;;;;;;6.88;3.03;;;4.80;99.90;;;3.77;92.35;99978.59;4121891;28;20022;-69
2020/12/30 01:27:56;;;;;;;5.28;3.00;;;4.60;99.90;;;4.01;91.12;99987.84;4105041;29;20487;-70
2020/12/30 01:29:57;;;;;;;6.63;3.70;;;4.60;99.90;;;4.03;90.99;99999.00;4104895;29;20037;-69
2020/12/30 01:31:58;;;;;;;8.38;3.55;;;4.60;99.90;;;4.08;91.09;100002.88;4104759;28;20031;-70
2020/12/30 01:34:00;;;;;;;5.82;3.17;;;4.60;99.90;;;4.30;89.17;100007.84;4105044;29;20035;-69
2020/12/30 01:36:01;;;;;;;4.00;3.13;;;4.70;99.90;;;3.97;89.38;99995.16;4122066;28;20026;-69
2020/12/30 01:38:02;;;;;;;5.43;3.83;;;4.70;99.90;;;4.02;91.18;100002.56;4120665;28;20477;-69
2020/12/30 01:40:04;;;;;;;6.25;3.08;;;4.60;99.90;;;4.11;90.16;100001.78;4104297;29;20032;-69
2020/12/30 01:42:05;;;;;;;6.65;3.45;;;4.60;99.90;;;3.84;90.85;100010.19;4120733;28;20046;-69
2020/12/30 01:44:08;;;;;;;5.00;3.45;;;4.60;99.90;;;3.94;91.52;100012.84;4122098;28;20498;-69
2020/12/30 01:46:10;;;;;;;4.20;3.03;;;4.50;99.90;;;4.18;90.12;100026.41;4104861;28;20038;-69
2020/12/30 01:48:17;;;;;;;4.50;3.25;;;4.60;99.90;;;4.02;90.49;100039.09;4104990;28;20403;-69
2020/12/30 01:50:18;;;;;;;4.55;3.22;;;4.60;99.90;;;4.04;90.81;100042.38;4104988;28;20031;-69
2020/12/30 01:52:19;;;;;;;7.25;3.15;;;4.60;99.90;;;3.80;91.66;100034.88;4121949;28;20041;-69
2020/12/30 01:54:20;;;;;;;5.75;4.20;;;4.60;99.90;;;3.82;91.57;100032.97;4104375;29;20411;-69
2020/12/30 01:56:27;;;;;;;5.15;3.38;;;4.60;99.90;;;3.87;91.72;100042.06;4104874;28;20078;-69
2020/12/30 01:58:28;;;;;;;7.68;4.95;;;4.50;99.90;;;3.91;91.01;100037.41;4104832;28;20031;-70
2020/12/30 02:00:29;;;;;;;11.23;4.45;;;4.40;99.90;;;3.68;91.20;100049.78;4121734;28;20058;-69
2020/12/30 02:02:30;;;;;;;8.52;4.63;;;4.40;99.90;;;3.87;91.95;100060.34;4104586;29;20027;-70
2020/12/30 02:04:53;;;;;;;6.45;4.45;;;4.30;99.90;;;3.67;91.65;100053.38;4121880;28;20023;-70
2020/12/30 02:06:55;;;;;;;7.35;4.60;;;4.30;99.90;;;3.68;91.53;100056.78;4121460;28;20026;-69
2020/12/30 02:08:57;;;;;;;7.32;4.63;;;4.20;99.90;;;3.65;91.92;100059.63;4104536;29;20034;-69
2020/12/30 02:10:59;;;;;;;6.90;4.97;;;4.10;99.90;;;3.68;91.75;100067.22;4104488;29;20042;-69
2020/12/30 02:13:00;;;;;;;11.55;4.47;;;4.10;99.90;;;3.62;91.35;100065.94;4121665;28;20035;-69
2020/12/30 02:15:01;;;;;;;7.85;4.07;;;4.10;99.90;;;3.45;91.68;100076.13;4104536;29;20039;-70
2020/12/30 02:17:03;;;;;;;7.82;4.10;;;4.00;99.90;;;3.57;90.48;100075.94;4104366;29;20491;-69
2020/12/30 02:19:04;;;;;;;11.13;4.03;;;4.10;99.90;;;3.32;91.24;100071.91;4104189;28;20027;-69
2020/12/30 02:21:05;;;;;;;5.60;3.42;;;4.10;99.90;;;3.51;91.19;100096.47;4121523;28;20033;-69
2020/12/30 02:23:09;;;;;;;8.25;4.43;;;3.90;99.90;;;3.44;91.34;100103.13;4104290;29;20503;-69
2020/12/30 02:25:10;;;;;;;5.32;3.30;;;4.00;99.90;;;3.32;91.74;100098.00;4087853;29;20066;-69
2020/12/30 02:27:11;;;;;;;5.47;3.63;;;3.90;99.90;;;3.28;92.34;100107.03;4120284;28;20023;-69
2020/12/30 02:29:12;;;;;;;8.18;3.45;;;3.90;99.90;;;3.39;92.07;100100.94;4120275;28;20121;-69
2020/12/30 02:31:13;;;;;;;8.50;4.60;;;3.90;99.90;;;3.36;90.87;100109.00;4088300;29;20066;-69
2020/12/30 02:33:14;;;;;;;11.32;6.15;;;3.80;99.90;;;3.40;90.83;100109.56;4103872;28;20031;-69
2020/12/30 02:35:15;;;;;;;12.57;5.22;;;3.80;99.90;;;3.21;90.45;100118.91;4120269;28;20023;-69
2020/12/30 02:37:21;;;;;;;8.63;5.07;;;3.70;99.90;;;3.02;89.88;100112.66;4121177;28;20077;-69
2020/12/30 02:39:23;;;;;;;8.40;5.07;;;3.60;99.90;;;3.11;89.61;100122.34;4120613;28;20402;-69
2020/12/30 02:41:24;;;;;;;9.65;4.78;;;3.60;99.90;;;3.17;90.28;100114.88;4103612;28;20082;-69
2020/12/30 02:43:25;;;;;;;7.07;4.82;;;3.60;99.90;;;3.03;90.98;100117.78;4104089;28;20511;-69
2020/12/30 02:45:25;;;;;;;9.63;4.75;;;3.60;99.90;;;3.04;91.06;100127.25;4103845;29;20083;-70
2020/12/30 02:47:27;;;;;;;11.30;4.97;;;3.60;99.90;;;2.96;91.90;100127.00;4103982;28;20495;-69
2020/12/30 02:49:28;;;;;;;11.70;5.10;;;3.60;99.90;;;2.91;91.89;100137.00;4123383;28;20023;-69
2020/12/30 02:51:28;;;;;;;9.65;5.43;;;3.60;99.90;;;2.85;91.98;100124.44;4121238;28;20027;-69
2020/12/30 02:53:29;;;;;;;9.45;5.20;;;3.50;99.90;;;2.98;92.22;100130.34;4087922;29;20036;-69
2020/12/30 02:55:30;;;;;;;7.53;4.50;;;3.50;99.90;;;3.15;91.39;100135.03;4120776;28;20063;-69
2020/12/30 02:57:31;;;;;;;5.93;3.42;;;3.60;99.90;;;3.25;90.04;100120.31;4103671;29;20027;-69
2020/12/30 02:59:32;;;;;;;6.22;3.92;;;3.60;99.90;;;3.45;90.23;100136.09;4103610;28;20031;-69
2020/12/30 03:01:33;;;;;;;7.47;3.63;;;3.70;99.90;;;3.33;89.37;100115.28;4120754;28;20082;-69
2020/12/30 03:03:34;;;;;;;6.55;4.00;;;3.80;99.90;;;3.45;89.32;100128.25;4120843;28;20050;-69
2020/12/30 03:05:35;;;;;;;4.60;3.10;;;3.80;99.90;;;3.54;88.27;100124.91;4120666;28;20074;-69
2020/12/30 03:07:35;;;;;;;7.78;3.88;;;3.90;99.90;;;3.49;89.27;100130.50;4087629;29;20038;-69
2020/12/30 03:09:36;;;;;;;6.30;4.20;;;4.00;99.90;;;3.63;87.59;100129.38;4120529;28;20438;-70
2020/12/30 03:11:37;;;;;;;6.97;3.75;;;4.00;99.90;;;3.64;88.92;100128.41;4103430;29;20078;-69
2020/12/30 03:13:39;;;;;;;6.28;3.30;;;4.00;99.90;;;3.74;87.20;100132.72;4120692;28;20030;-69
2020/12/30 03:15:40;;;;;;;4.85;2.85;;;4.00;99.90;;;3.76;87.25;100130.81;4103366;29;20573;-69
2020/12/30 03:17:41;;;;;;;7.13;2.90;;;4.20;99.90;;;3.80;87.59;100132.22;4119464;28;20929;-69
2020/12/30 03:19:42;;;;;;;7.07;2.70;;;4.10;99.90;;;3.78;87.42;100146.34;4103424;28;20028;-69
2020/12/30 03:21:43;;;;;;;6.40;2.65;;;4.20;99.90;;;3.71;88.20;100146.03;4120554;28;20027;-69
2020/12/30 03:23:43;;;;;;;6.57;3.35;;;4.10;99.90;;;3.62;86.93;100135.53;4120532;28;20027;-69
2020/12/30 03:25:44;;;;;;;6.38;2.50;;;4.10;99.90;;;3.70;87.71;100148.78;4120038;28;20054;-69
2020/12/30 03:27:45;;;;;;;4.32;2.92;;;4.20;99.90;;;3.53;88.31;100144.09;4120107;28;20026;-69
2020/12/30 03:29:46;;;;;;;4.57;2.30;;;4.10;99.90;;;3.58;89.11;100153.22;4103050;29;20086;-69
2020/12/30 03:31:47;;;;;;;8.68;3.00;;;4.10;99.90;;;3.73;88.45;100149.31;4120136;28;20031;-69
2020/12/30 03:33:48;;;;;;;3.95;2.42;;;4.10;99.90;;;3.76;87.81;100143.06;4103279;29;20055;-69
2020/12/30 03:35:49;;;;;;;5.25;3.15;;;4.20;99.90;;;3.66;88.38;100139.53;4120015;28;20110;-69
2020/12/30 03:37:49;;;;;;;5.63;2.67;;;4.20;99.90;;;3.78;87.99;100136.75;4102911;29;20031;-69
2020/12/30 03:39:50;;;;;;;5.35;3.10;;;4.20;99.90;;;3.75;88.46;100147.44;4119553;28;20035;-69
2020/12/30 03:41:51;;;;;;;7.22;2.50;;;4.30;99.90;;;3.81;88.86;100146.94;4102696;28;20062;-69
2020/12/30 03:43:52;;;;;;;5.68;2.65;;;4.30;99.90;;;3.74;88.97;100151.00;4119718;28;20034;-69
2020/12/30 03:45:53;;;;;;;5.50;3.05;;;4.30;99.90;;;3.69;89.73;100149.72;4102515;28;20094;-70
2020/12/30 03:47:54;;;;;;;8.57;2.50;;;4.30;99.90;;;3.82;88.82;100147.75;4105456;28;20042;-69
2020/12/30 03:49:55;;;;;;;11.52;2.55;;;4.30;99.90;;;3.71;89.10;100146.03;4120065;28;20030;-69
2020/12/30 03:51:59;;;;;;;5.40;2.45;;;4.30;99.90;;;3.81;89.35;100139.09;4102786;28;20035;-69
2020/12/30 03:54:00;;;;;;;;;;;4.30;99.90;;;3.55;89.45;100152.66;4103575;28;20035;-69
2020/12/30 03:56:01;;;;;;;6.97;2.90;;;4.20;99.90;;;3.60;90.56;100151.31;4119609;28;19917;-69
2020/12/30 03:58:02;;;;;;;8.82;2.92;;;4.20;99.90;;;3.81;88.20;100154.75;4102772;28;20032;-69
2020/12/30 04:00:03;;;;;;;3.25;2.53;;;4.30;99.90;;;3.82;89.00;100150.38;4119789;28;20454;-69
2020/12/30 04:02:04;;;;;;;9.55;2.63;;;4.30;99.90;;;3.86;88.58;100147.38;4102822;28;20499;-69
2020/12/30 04:04:05;;;;;;;7.53;3.22;;;4.30;99.90;;;3.82;89.06;100147.75;4119688;28;20058;-69
2020/12/30 04:06:06;;;;;;;6.40;2.88;;;4.20;99.90;;;3.83;88.43;100147.63;4102645;28;20094;-69
2020/12/30 04:08:07;;;;;;;10.00;3.00;;;4.30;99.90;;;3.84;88.03;100151.06;4119827;28;20023;-70
2020/12/30 04:10:07;;;;;;;4.38;2.50;;;4.30;99.90;;;3.86;88.91;100160.41;4102341;28;20062;-69
2020/12/30 04:12:08;;;;;;;6.45;2.85;;;4.30;99.90;;;3.82;89.06;100152.97;4119617;28;20031;-69
2020/12/30 04:14:09;;;;;;;6.22;2.92;;;4.20;99.90;;;3.79;88.99;100161.88;4102617;28;20027;-69
2020/12/30 04:16:10;;;;;;;7.90;2.75;;;4.20;99.90;;;3.77;88.61;100165.56;4102580;28;20035;-69
2020/12/30 04:18:11;;;;;;;4.35;2.33;;;4.20;99.90;;;3.69;89.54;100173.19;4102528;28;20024;-69
2020/12/30 04:20:12;;;;;;;4.32;2.50;;;4.20;99.90;;;3.74;89.22;100171.03;4102460;28;20027;-70
2020/12/30 04:22:13;;;;;;;7.35;2.88;;;4.10;99.90;;;3.59;89.20;100161.84;4119693;28;20026;-69
2020/12/30 04:24:14;;;;;;;5.35;2.33;;;4.00;99.90;;;3.44;89.86;100173.53;4119325;28;20030;-69
2020/12/30 04:26:16;;;;;;;6.38;2.83;;;4.00;99.90;;;3.65;89.62;100166.56;4119529;28;20050;-70
2020/12/30 04:28:17;;;;;;;6.57;2.63;;;4.00;99.90;;;3.69;89.45;100179.25;4102388;28;20038;-70
2020/12/30 04:30:17;;;;;;;4.93;2.55;;;4.10;99.90;;;3.61;89.16;100183.44;4118394;28;20022;-69
2020/12/30 04:32:19;;;;;;;4.95;3.03;;;4.00;99.90;;;3.51;89.92;100175.53;4102412;28;20089;-70
2020/12/30 04:34:20;;;;;;;6.60;3.40;;;4.00;99.90;;;3.54;89.01;100185.72;4119454;28;20380;-69
2020/12/30 04:36:21;;;;;;;7.85;3.25;;;3.90;99.90;;;3.49;89.38;100190.47;4119421;28;20038;-70
2020/12/30 04:38:21;;;;;;;8.43;2.67;;;3.90;99.90;;;3.58;89.19;100205.38;4102367;28;20078;-69
2020/12/30 04:40:23;;;;;;;6.18;2.63;;;3.90;99.90;;;3.58;88.46;100202.78;4119087;28;20034;-69
2020/12/30 04:42:36;;;;;;;9.13;3.10;;;3.90;99.90;;;3.41;88.94;100205.06;4102184;28;20039;-69
2020/12/30 04:44:43;;;;;;;7.03;2.85;;;3.90;99.90;;;3.38;89.65;100198.31;4102127;28;20031;-69
2020/12/30 04:46:45;;;;;;;7.30;2.53;;;3.90;99.90;;;3.35;90.24;100209.81;4102553;28;20499;-69
2020/12/30 04:48:47;;;;;;;4.40;2.53;;;3.80;99.90;;;3.33;90.61;100210.91;4119258;28;20022;-70
2020/12/30 04:50:48;;;;;;;4.43;2.65;;;3.80;99.90;;;3.37;90.06;100204.50;4102177;28;20055;-69
2020/12/30 04:52:50;;;;;;;3.50;3.20;;;3.70;99.90;;;3.47;89.45;100209.78;4101970;28;20079;-69
2020/12/30 04:54:51;;;;;;;4.57;2.30;;;3.80;99.90;;;3.44;88.82;100221.28;4119025;28;20055;-69
2020/12/30 04:57:01;;;;;;;9.85;3.60;;;3.70;99.90;;;3.35;89.20;100214.22;4121974;28;20375;-70
2020/12/30 04:59:04;;;;;;;4.90;2.53;;;3.70;99.90;;;3.34;88.99;100215.97;4105402;28;20031;-70
2020/12/30 05:01:09;;;;;;;4.78;2.88;;;3.70;99.90;;;3.29;89.94;100222.50;4105250;28;20042;-70
2020/12/30 05:03:11;;;;;;;4.88;2.78;;;3.70;99.90;;;3.22;90.15;100227.41;4105604;28;20071;-69
2020/12/30 05:05:12;;;;;;;5.32;3.10;;;3.60;99.90;;;3.19;90.74;100219.84;4105297;28;20034;-70
2020/12/30 05:07:14;;;;;;;5.85;2.90;;;3.60;99.90;;;3.21;89.44;100220.53;4105321;28;20023;-69
2020/12/30 05:09:20;;;;;;;7.28;3.33;;;3.60;99.90;;;3.20;90.31;100223.25;4105264;28;20102;-69
2020/12/30 05:11:22;;;;;;;12.23;4.70;;;3.60;99.90;;;3.22;89.33;100223.97;4105332;28;20035;-70
2020/12/30 05:13:23;;;;;;;6.70;3.10;;;3.60;99.90;;;3.26;89.69;100226.19;4105159;28;20027;-69
2020/12/30 05:15:23;;;;;;;5.25;3.47;;;3.60;99.90;;;3.18;89.75;100223.38;4122313;28;20434;-70
2020/12/30 05:17:24;;;;;;;4.63;3.42;;;3.60;99.90;;;3.16;89.81;100225.28;4122350;28;20110;-70
2020/12/30 05:19:25;;;;;;;8.00;3.63;;;3.50;99.90;;;3.22;88.64;100232.63;4104946;28;20075;-70
2020/12/30 05:21:26;;;;;;;5.25;3.58;;;3.50;99.90;;;3.09;89.03;100231.09;4122304;28;20037;-70
2020/12/30 05:23:30;;;;;;;7.35;3.55;;;3.60;99.90;;;2.98;89.71;100237.16;4122208;28;20022;-70
2020/12/30 05:25:44;;;;;;;6.32;2.90;;;3.50;99.90;;;2.90;90.48;100236.91;4122074;28;20038;-70
2020/12/30 05:27:45;;;;;;;7.47;2.53;;;3.40;99.90;;;2.86;91.48;100245.09;4105119;28;20058;-70
2020/12/30 05:29:49;;;;;;;4.20;2.65;;;3.40;99.90;;;3.13;89.64;100246.38;4104954;28;20106;-70
2020/12/30 05:31:52;;;;;;;4.47;2.70;;;3.50;99.90;;;3.16;88.28;100242.69;4122097;28;20027;-69
2020/12/30 05:33:53;;;;;;;5.15;2.72;;;3.50;99.90;;;3.30;88.01;100252.84;4104984;28;20106;-69
2020/12/30 05:36:02;;;;;;;2.65;2.33;;;3.60;99.90;;;3.20;88.88;100244.94;4122074;28;20085;-69
2020/12/30 05:38:04;;;;;;;7.85;3.20;;;3.50;99.90;;;3.11;89.53;100244.81;4104839;28;20127;-70
2020/12/30 05:40:33;;;;;;;3.15;2.00;;;3.50;99.90;;;3.18;89.42;100265.09;4104277;28;20024;-69
2020/12/30 05:42:33;;;;;;;5.38;3.03;;;3.50;99.90;;;3.42;89.47;100262.31;4088896;29;20055;-69
2020/12/30 05:44:34;;;;;;;5.90;3.33;;;3.60;99.90;;;3.29;89.72;100257.22;4121656;28;20027;-70
2020/12/30 05:46:35;;;;;;;6.40;2.50;;;3.60;99.90;;;3.29;90.03;100267.66;4104738;28;20066;-70
2020/12/30 05:48:36;;;;;;;8.30;3.15;;;3.70;99.90;;;3.36;89.55;100265.41;4107570;28;20372;-70
2020/12/30 05:50:54;;;;;;;6.45;2.38;;;3.70;99.90;;;3.71;88.13;100276.44;4104621;28;20075;-70
2020/12/30 05:52:55;;;;;;;6.43;2.25;;;3.80;99.90;;;3.78;87.85;100267.19;4121738;28;20054;-70
2020/12/30 05:54:59;;;;;;;5.30;2.30;;;4.00;99.90;;;3.93;86.98;100265.09;4104271;28;20118;-70
2020/12/30 05:57:00;;;;;;;4.80;2.55;;;4.10;99.90;;;3.84;87.44;100268.47;4104621;28;20094;-70
2020/12/30 05:59:04;;;;;;;2.53;2.03;;;4.10;99.90;;;3.94;86.92;100272.00;4104503;28;20518;-70
2020/12/30 06:01:27;;;;;;;5.53;2.20;;;4.30;99.90;;;3.96;87.21;100269.25;4104655;28;20430;-70
2020/12/30 06:03:28;;;;;;;4.90;2.83;;;4.40;99.90;;;3.79;87.50;100279.25;4121531;28;20035;-70
2020/12/30 06:05:29;;;;;;;4.88;2.22;;;4.40;99.90;;;3.63;88.59;100276.25;4104363;28;20030;-69
2020/12/30 06:07:32;;;;;;;5.88;2.63;;;4.40;99.90;;;3.92;87.44;100284.31;4121006;28;20034;-70
2020/12/30 06:09:39;;;;;;;6.15;2.50;;;4.30;99.90;;;4.01;86.93;100280.94;4104394;28;20058;-70
2020/12/30 06:11:53;;;;;;;5.95;2.50;;;4.40;99.90;;;3.92;87.24;100282.53;4121417;28;20037;-70
2020/12/30 06:13:58;;;;;;;4.10;2.17;;;4.30;99.90;;;4.07;86.45;100287.44;4104187;28;20086;-70
2020/12/30 06:16:06;;;;;;;7.03;2.88;;;4.30;99.90;;;4.10;86.46;100290.63;4104652;28;20039;-69
2020/12/30 06:18:10;;;;;;;5.30;2.10;;;4.40;99.90;;;4.11;86.39;100281.03;4104570;28;20028;-69
2020/12/30 06:20:14;;;;;;;6.70;1.90;;;4.40;99.90;;;3.93;87.06;100283.38;4104122;28;20058;-70
2020/12/30 06:22:19;;;;;;;4.63;2.10;;;4.40;99.90;;;3.90;88.07;100286.22;4088868;29;20031;-69
2020/12/30 06:24:21;;;;;;;5.43;2.30;;;4.40;99.90;;;3.86;88.00;100295.25;4088180;29;20023;-70
2020/12/30 06:26:29;;;;;;;3.30;1.75;;;4.30;99.90;;;3.91;87.97;100298.31;4104091;28;20051;-69
2020/12/30 06:28:32;;;;;;;2.72;2.08;;;4.30;99.90;;;3.69;88.34;100295.78;4104291;28;20055;-70
2020/12/30 06:30:33;;;;;;;5.43;2.20;;;4.30;99.90;;;3.67;89.01;100297.69;4103886;28;20023;-70
2020/12/30 06:32:34;;;;;;;5.32;2.40;;;4.20;99.90;;;3.68;88.27;100307.97;4104141;28;20410;-70
2020/12/30 06:34:36;;;;;;;6.10;2.22;;;4.20;99.90;;;3.70;88.45;100297.44;4121405;28;20030;-70
2020/12/30 06:36:39;;;;;;;3.20;2.25;;;4.30;99.90;;;3.55;89.08;100301.28;4103906;28;20031;-70
2020/12/30 06:38:41;;;;;;;4.43;2.10;;;4.30;99.90;;;3.56;90.14;100308.13;4104070;28;20035;-70
2020/12/30 06:40:55;;;;;;;6.53;2.05;;;4.40;99.90;;;3.79;89.31;100318.38;4120658;28;20042;-70
2020/12/30 06:43:02;;;;;;;6.22;2.67;;;4.30;99.90;;;3.67;89.25;100310.72;4087889;29;20039;-70
2020/12/30 06:45:03;;;;;;;8.90;3.45;;;4.40;99.90;;;3.55;90.38;100315.16;4121030;28;20081;-70
2020/12/30 06:47:06;;;;;;;6.93;2.80;;;4.40;99.90;;;3.60;90.81;100315.59;4103697;28;20038;-70
2020/12/30 06:49:08;;;;;;;4.38;2.22;;;4.30;99.90;;;3.87;89.82;100317.78;4103710;28;20028;-70
2020/12/30 06:51:18;;;;;;;5.57;2.13;;;4.40;99.90;;;3.76;89.88;100316.00;4103741;28;20023;-70
2020/12/30 06:53:29;;;;;;;2.97;2.05;;;4.40;99.90;;;3.82;90.00;100323.34;4087657;29;20126;-70
2020/12/30 06:55:46;;;;;;;5.20;2.60;;;4.40;99.90;;;3.75;89.67;100318.75;4103383;28;20058;-70
2020/12/30 06:57:47;;;;;;;3.28;2.30;;;4.40;99.90;;;3.63;89.77;100320.56;4103522;28;20039;-70
2020/12/30 06:59:48;;;;;;;6.00;2.67;;;4.40;99.90;;;3.62;90.58;100321.50;4103741;28;20506;-70
2020/12/30 07:02:04;;;;;;;2.47;2.25;;;4.30;99.90;;;3.62;90.29;100329.34;4103577;28;20062;-69
2020/12/30 07:04:08;;;;;;;4.55;2.20;;;4.30;99.90;;;3.72;89.31;100327.66;4120604;28;20510;-70
2020/12/30 07:06:52;;;;;;;4.65;2.80;;;4.30;99.90;;;3.49;89.95;100327.84;4120751;28;20487;-69
2020/12/30 07:09:04;;;;;;;2.72;2.10;;;4.20;99.90;;;3.47;90.50;100333.16;4117674;28;20038;-70
2020/12/30 07:11:05;;;;;;;7.30;2.80;;;4.20;99.90;;;3.23;90.99;100327.25;4103617;28;20372;-70
2020/12/30 07:13:06;;;;;;;6.03;2.85;;;4.10;99.90;;;3.38;90.61;100336.47;4119273;28;20041;-69
2020/12/30 07:15:06;;;;;;;3.20;2.50;;;4.00;99.90;;;3.35;91.17;100337.56;4120580;28;20027;-70
2020/12/30 07:17:08;;;;;;;7.78;2.70;;;4.00;99.90;;;3.42;90.23;100340.53;4103171;28;20544;-69
2020/12/30 07:19:24;;;;;;;6.65;2.30;;;4.00;99.90;;;3.43;90.80;100341.34;4102417;28;20031;-69
2020/12/30 07:21:25;;;;;;;3.35;2.47;;;4.10;99.90;;;3.51;90.64;100346.78;4103715;28;20110;-69
2020/12/30 07:23:27;;;;;;;4.03;2.70;;;4.10;99.90;;;3.45;90.72;100340.28;4087128;29;20118;-70
2020/12/30 07:25:28;;;;;;;3.30;2.85;;;4.10;99.90;;;3.39;89.80;100342.53;4102994;28;20031;-70
2020/12/30 07:27:30;;;;;;;6.00;2.40;;;4.00;99.90;;;3.34;90.97;100340.31;4103227;28;20074;-69
2020/12/30 07:29:31;;;;;;;6.00;3.03;;;4.00;99.90;;;3.21;90.94;100357.81;4120349;28;20035;-69
2020/12/30 07:31:35;;;;;;;9.75;3.85;;;3.90;99.90;;;3.11;91.54;100352.50;4120231;28;20039;-70
2020/12/30 07:33:40;;;;;;;6.15;3.05;;;3.90;99.90;;;3.07;91.73;100356.31;4103335;28;20510;-69
2020/12/30 07:35:41;;;;;;;8.32;3.72;;;3.80;99.90;;;3.15;91.49;100355.69;4103014;28;20046;-69
2020/12/30 07:37:42;;;;;;;4.00;3.00;;;3.80;99.90;;;3.09;91.11;100364.81;4120269;28;20398;-69
2020/12/30 07:39:46;;;;;;;8.88;3.20;;;3.80;99.90;;;3.16;91.58;100352.97;4102615;28;20102;-69
2020/12/30 07:41:47;;;;;;;8.52;3.20;;;3.80;99.90;;;3.48;90.32;100368.72;4120000;28;20101;-69
2020/12/30 07:43:52;;;;;;;4.25;2.80;;;3.80;99.90;;;3.51;89.38;100365.88;4119792;28;20031;-69
2020/12/30 07:45:53;;;;;;;4.60;2.85;;;3.90;99.90;;;3.46;89.65;100365.41;4103049;28;20051;-69
2020/12/30 07:47:54;;;;;;;3.75;2.83;;;3.90;99.90;;;3.55;89.76;100375.13;4105680;28;20030;-69
2020/12/30 07:50:03;;;;;;;5.13;2.33;;;4.10;99.90;;;3.59;89.69;100373.06;4120061;28;20498;-70
2020/12/30 07:52:04;;;;;;;4.38;2.78;;;4.00;99.90;;;3.58;89.65;100380.09;4103008;28;20380;-69
2020/12/30 07:54:05;;;;;;;4.90;3.00;;;4.00;99.90;;;3.60;90.20;100374.75;4119540;28;20081;-69
2020/12/30 07:56:24;;;;;;;5.25;3.25;;;4.10;99.90;;;3.51;90.43;100376.31;4102615;29;20419;-69
2020/12/30 07:58:25;;;;;;;8.00;4.57;;;4.10;99.90;;;3.49;90.05;100373.00;4102702;28;20399;-69
2020/12/30 08:00:29;;;;;;;7.32;4.00;;;4.10;99.90;;;3.69;89.46;100376.63;4119700;28;20054;-70
2020/12/30 08:02:30;;;;;;;9.95;4.93;;;4.10;99.90;;;3.74;89.32;100387.53;4086495;29;20075;-70
2020/12/30 08:04:37;;;;;;;5.97;4.10;;;4.20;99.90;;;3.71;89.91;100388.59;4119749;28;20034;-70
2020/12/30 08:06:46;;;;;;;6.25;4.45;;;4.20;99.90;;;3.76;89.43;100393.47;4102983;28;20087;-70
2020/12/30 08:08:50;;;;;;;5.60;3.67;;;4.20;99.90;;;3.80;89.70;100394.88;4102609;28;20051;-70
2020/12/30 08:10:55;;;;;;;9.38;5.32;;;4.30;99.90;;;3.92;88.62;100391.28;4119555;28;20031;-70
2020/12/30 08:13:09;;;;;;;3.90;3.50;;;4.30;99.90;;;4.07;88.17;100413.56;4102596;29;20086;-70
2020/12/30 08:15:12;;;;;;;7.35;3.95;;;4.30;99.90;;;4.06;87.95;100417.09;4086710;29;20452;-70
2020/12/30 08:17:14;;;;;;;4.72;3.38;;;4.40;99.90;;;4.02;87.53;100405.28;4086366;29;20046;-70
2020/12/30 08:19:30;;;;;;;8.60;4.18;;;4.50;99.90;;;3.99;87.04;100415.13;4086553;29;20056;-70
2020/12/30 08:21:31;;;;;;;6.68;4.00;;;4.50;99.90;;;3.99;87.03;100422.94;4119576;28;20111;-70
2020/12/30 08:23:31;;;;;;;6.07;4.07;;;4.50;99.90;;;3.91;88.47;100431.41;4102138;29;20024;-70
2020/12/30 08:25:32;;;;;;;5.72;4.05;;;4.50;99.90;;;3.85;88.08;100429.28;4117294;28;20031;-71
2020/12/30 08:27:33;;;;;;;6.53;3.80;;;4.60;99.90;;;3.89;88.85;100430.66;4101851;29;20494;-71
2020/12/30 08:29:40;;;;;;;5.45;3.83;;;4.60;99.90;;;4.21;87.24;100434.16;4102049;28;20122;-71
2020/12/30 08:31:46;;;;;;;5.95;3.47;;;4.70;99.90;;;4.34;86.75;100442.66;4103451;28;20106;-71
2020/12/30 08:33:50;;;;;;;6.80;3.40;;;4.80;99.90;;;4.35;86.46;100436.50;4102425;28;20038;-71
2020/12/30 08:36:08;;;;;;;4.95;2.75;;;4.90;99.90;;;4.14;86.90;100440.84;4102451;28;20119;-72
2020/12/30 08:38:15;;;;;;;6.95;2.88;;;4.90;99.90;;;4.22;87.18;100446.25;4103652;28;20027;-70
2020/12/30 08:40:25;;;;;;;5.68;3.40;;;4.90;99.90;;;3.94;87.83;100443.38;4119200;28;20037;-70
2020/12/30 08:42:52;;;;;;;4.57;2.63;;;4.80;99.90;;;4.15;87.42;100447.69;4115899;28;20038;-69
2020/12/30 08:45:02;;;;;;;3.95;2.67;;;4.80;99.90;;;4.21;87.40;100444.59;4106112;28;20027;-69